Time;durP1;ratioP1;P1;durP2;ratioP2;P2;SDS_P1;SDS_P2;PMS_P1;PMS_P2;Temp;Humidity;BMP_temperature;BMP_pressure;BME280_temperature;BME280_humidity;BME280_pressure;Samples;Min_cycle;Max_cycle;Signal;HPM_P1;HPM_P2
2021/05/06 00:32:08;;;;;;;1.23;1.17;;;5.30;99.90;;;;;;5074465;28;20563;-77
2021/05/06 00:34:35;;;;;;;0.50;0.40;;;5.30;99.90;;;;;;5074588;28;20225;-75
2021/05/06 00:37:01;;;;;;;0.50;0.40;;;5.40;99.90;;;;;;5074768;28;20202;-79
2021/05/06 00:39:30;;;;;;;1.30;1.30;;;5.30;99.90;;;;;;5073580;28;20197;-78
2021/05/06 01:01:47;;;;;;;0.50;0.50;;;4.90;99.90;;;;;;5051514;28;20240;-78
2021/05/06 01:04:28;;;;;;;0.98;0.93;;;4.90;99.90;;;;;;5051423;28;20314;-77
2021/05/06 01:07:08;;;;;;;0.50;0.50;;;4.90;99.90;;;;;;5080058;28;20200;-77
2021/05/06 01:09:39;;;;;;;0.50;0.40;;;4.90;99.90;;;;;;5094218;28;20197;-76
2021/05/06 01:12:05;;;;;;;0.50;0.40;;;4.90;99.90;;;;;;5093159;28;20196;-77
2021/05/06 01:14:33;;;;;;;0.50;0.40;;;4.90;99.90;;;;;;5087655;28;20224;-77
2021/05/06 01:17:00;;;;;;;0.50;0.50;;;4.90;99.90;;;;;;5094161;28;20414;-77
2021/05/06 01:19:26;;;;;;;4.63;1.63;;;4.90;99.90;;;;;;5093642;28;20246;-78
2021/05/06 01:21:54;;;;;;;0.50;0.40;;;4.90;99.90;;;;;;5093926;28;20654;-78
2021/05/06 01:24:20;;;;;;;0.50;0.40;;;4.90;99.90;;;;;;5094214;28;20217;-78
2021/05/06 01:26:53;;;;;;;0.50;0.40;;;4.90;99.90;;;;;;5093567;28;20662;-77
2021/05/06 01:29:23;;;;;;;1.23;1.20;;;4.90;99.90;;;;;;5093310;28;20555;-78
2021/05/06 01:31:53;;;;;;;0.80;0.80;;;5.00;99.90;;;;;;5093580;28;20201;-77
2021/05/06 01:34:21;;;;;;;0.50;0.40;;;5.00;99.90;;;;;;5093627;28;20224;-78
2021/05/06 01:36:50;;;;;;;1.20;1.20;;;5.00;99.90;;;;;;5094117;28;20555;-77
2021/05/06 01:39:51;;;;;;;0.50;0.50;;;5.00;99.90;;;;;;5094052;28;20204;-77
2021/05/06 01:42:18;;;;;;;0.50;0.40;;;5.00;99.90;;;;;;5094165;28;20606;-77
2021/05/06 01:47:29;;;;;;;0.55;0.50;;;5.00;99.90;;;;;;5078589;28;20196;-76
2021/05/06 01:50:11;;;;;;;1.00;1.00;;;5.10;99.90;;;;;;5094455;28;20201;-78
2021/05/06 01:58:27;;;;;;;3.83;3.20;;;5.10;99.90;;;;;;5093549;28;20679;-78
2021/05/06 02:00:57;;;;;;;1.35;1.05;;;5.10;99.90;;;;;;5093672;28;20176;-76
2021/05/06 02:03:23;;;;;;;0.68;0.68;;;5.10;99.90;;;;;;5093781;28;20228;-77
2021/05/06 02:05:50;;;;;;;2.55;2.35;;;5.10;99.90;;;;;;5092551;28;20213;-78
2021/05/06 02:08:16;;;;;;;3.20;1.30;;;5.00;99.90;;;;;;5091801;28;20204;-78
2021/05/06 02:10:43;;;;;;;0.80;0.80;;;5.10;99.90;;;;;;5093467;28;20212;-73
2021/05/06 02:13:10;;;;;;;0.85;0.85;;;5.10;99.90;;;;;;5090857;28;20243;-79
2021/05/06 02:15:38;;;;;;;0.50;0.50;;;5.10;99.90;;;;;;5089554;28;20274;-75
2021/05/06 02:18:05;;;;;;;0.70;0.70;;;5.10;99.90;;;;;;5092673;28;20528;-77
2021/05/06 02:20:31;;;;;;;3.72;1.85;;;5.10;99.90;;;;;;5093067;28;20203;-77
2021/05/06 02:22:57;;;;;;;1.27;1.13;;;5.10;99.90;;;;;;5092662;28;20536;-77
2021/05/06 02:25:24;;;;;;;0.50;0.40;;;5.00;99.90;;;;;;5092403;28;20227;-77
2021/05/06 02:27:51;;;;;;;1.40;1.30;;;5.00;99.90;;;;;;5092397;28;20218;-78
2021/05/06 02:30:18;;;;;;;0.57;0.55;;;5.00;99.90;;;;;;5092440;28;20253;-78
2021/05/06 02:32:45;;;;;;;3.53;1.55;;;5.00;99.90;;;;;;5092433;28;20249;-76
2021/05/06 02:35:11;;;;;;;2.25;1.75;;;5.00;99.90;;;;;;5092432;28;20228;-79
2021/05/06 02:37:37;;;;;;;1.83;1.73;;;5.00;99.90;;;;;;5092405;28;20200;-74
2021/05/06 02:40:05;;;;;;;8.32;7.78;;;5.00;99.90;;;;;;5092509;28;20193;-77
2021/05/06 02:42:32;;;;;;;1.88;1.77;;;5.00;99.90;;;;;;5092302;28;20227;-79
2021/05/06 02:44:59;;;;;;;2.42;2.13;;;5.00;99.90;;;;;;5086480;28;20211;-76
2021/05/06 02:47:25;;;;;;;2.67;2.45;;;5.00;99.90;;;;;;5092620;28;20189;-77
2021/05/06 02:49:52;;;;;;;0.50;0.40;;;5.00;99.90;;;;;;5091726;28;20222;-77
2021/05/06 02:52:23;;;;;;;7.38;4.35;;;5.00;99.90;;;;;;5092153;28;20216;-79
2021/05/06 02:54:58;;;;;;;0.50;0.40;;;5.00;99.90;;;;;;5092432;28;20222;-77
2021/05/06 02:57:29;;;;;;;2.28;2.08;;;5.10;99.90;;;;;;5092597;28;20180;-77
2021/05/06 03:02:51;;;;;;;0.50;0.40;;;5.10;99.90;;;;;;5092181;28;20402;-77
2021/05/06 03:05:19;;;;;;;2.83;2.63;;;5.10;99.90;;;;;;5092346;28;20588;-78
2021/05/06 03:07:51;;;;;;;0.50;0.50;;;5.10;99.90;;;;;;5092493;28;20196;-78
2021/05/06 03:10:31;;;;;;;1.77;1.13;;;5.10;99.90;;;;;;5091859;28;20196;-78
2021/05/06 03:21:32;;;;;;;3.53;1.95;;;5.10;99.90;;;;;;5095621;28;20248;-77
2021/05/06 03:23:59;;;;;;;3.83;1.20;;;5.10;99.90;;;;;;5096388;28;20213;-77
2021/05/06 03:26:25;;;;;;;1.27;0.70;;;5.10;99.90;;;;;;5095038;28;20200;-78
2021/05/06 03:28:55;;;;;;;2.42;2.25;;;5.10;99.90;;;;;;5095819;28;20205;-76
2021/05/06 03:31:36;;;;;;;1.60;1.50;;;5.10;99.90;;;;;;5095712;28;20197;-77
2021/05/06 03:42:20;;;;;;;1.65;1.55;;;5.10;99.90;;;;;;5095046;28;20611;-77
2021/05/06 03:44:56;;;;;;;1.00;0.55;;;5.10;99.90;;;;;;5090354;28;20684;-78
2021/05/06 04:17:53;;;;;;;1.50;0.80;;;5.30;99.90;;;;;;5086977;28;20276;-76
2021/05/06 04:25:56;;;;;;;1.20;1.20;;;5.40;99.90;;;;;;5095076;28;20208;-78
2021/05/06 04:36:55;;;;;;;1.05;1.05;;;5.50;99.90;;;;;;5094282;28;20204;-76
2021/05/06 04:39:45;;;;;;;0.50;0.40;;;5.50;99.90;;;;;;5094801;28;20308;-79
2021/05/06 04:45:35;;;;;;;0.50;0.40;;;5.60;99.90;;;;;;5088001;28;20570;-77
2021/05/06 04:53:40;;;;;;;1.10;1.00;;;5.60;99.90;;;;;;5074050;28;20192;-78
2021/05/06 04:56:14;;;;;;;0.50;0.50;;;5.60;99.90;;;;;;5073822;28;20234;-77
2021/05/06 05:04:10;;;;;;;0.80;0.80;;;5.60;99.90;;;;;;5073262;28;20697;-79
2021/05/06 05:06:39;;;;;;;1.77;1.67;;;5.60;99.90;;;;;;5073898;28;20193;-78
2021/05/06 05:09:21;;;;;;;0.63;0.63;;;5.70;99.90;;;;;;5073305;28;20258;-79
2021/05/06 05:11:52;;;;;;;0.60;0.60;;;5.60;99.90;;;;;;5073384;28;20277;-78
2021/05/06 05:14:36;;;;;;;1.35;1.25;;;5.70;99.90;;;;;;5079417;28;20221;-78
2021/05/06 05:25:29;;;;;;;0.73;0.50;;;5.80;99.90;;;;;;5077522;28;20647;-77
2021/05/06 05:27:57;;;;;;;1.40;1.10;;;5.90;99.90;;;;;;5091757;28;20182;-77
2021/05/06 05:30:28;;;;;;;2.30;1.85;;;5.90;99.90;;;;;;5093098;28;20189;-77
2021/05/06 05:32:54;;;;;;;0.50;0.50;;;5.90;99.90;;;;;;5092867;28;20197;-77
2021/05/06 05:35:30;;;;;;;1.45;1.30;;;6.00;99.90;;;;;;5093275;28;20224;-77
2021/05/06 05:38:06;;;;;;;0.50;0.50;;;6.00;99.90;;;;;;5093136;28;20208;-79
2021/05/06 05:40:36;;;;;;;3.15;2.03;;;6.10;99.90;;;;;;5093298;28;20266;-77
2021/05/06 05:43:10;;;;;;;0.75;0.75;;;6.20;99.90;;;;;;5091402;28;20196;-77
2021/05/06 05:46:04;;;;;;;1.13;1.02;;;6.20;99.90;;;;;;5089093;28;20574;-75
2021/05/06 05:56:40;;;;;;;2.45;1.27;;;6.30;99.90;;;;;;5092099;28;20192;-75
2021/05/06 05:59:07;;;;;;;2.55;2.45;;;6.40;99.90;;;;;;5092632;28;20193;-78
2021/05/06 06:01:33;;;;;;;1.30;1.30;;;6.40;99.90;;;;;;5092047;28;20204;-77
2021/05/06 06:04:00;;;;;;;1.35;1.15;;;6.50;99.90;;;;;;5092647;28;20218;-77
2021/05/06 06:06:26;;;;;;;1.25;1.15;;;6.60;99.90;;;;;;5092280;28;20200;-77
2021/05/06 06:08:53;;;;;;;0.50;0.45;;;6.70;99.90;;;;;;5091806;28;20204;-80
2021/05/06 06:11:20;;;;;;;3.00;1.83;;;6.80;99.90;;;;;;5090726;28;20693;-78
2021/05/06 06:13:48;;;;;;;2.25;0.93;;;6.80;99.90;;;;;;5086266;28;20604;-77
2021/05/06 06:16:22;;;;;;;0.50;0.40;;;6.90;99.90;;;;;;5091601;28;20586;-77
2021/05/06 06:18:50;;;;;;;0.50;0.40;;;6.80;99.90;;;;;;5091981;28;20264;-78
2021/05/06 06:21:21;;;;;;;0.50;0.43;;;6.90;99.90;;;;;;5091504;28;20194;-78
2021/05/06 06:23:48;;;;;;;2.30;2.05;;;6.90;99.90;;;;;;5091832;28;20197;-77
2021/05/06 06:26:14;;;;;;;0.70;0.70;;;7.00;99.90;;;;;;5091814;28;20204;-78
2021/05/06 06:28:42;;;;;;;5.95;3.22;;;7.00;99.90;;;;;;5092027;28;20213;-77
2021/05/06 06:31:12;;;;;;;7.35;2.17;;;7.00;99.90;;;;;;5091113;28;20674;-78
2021/05/06 06:33:39;;;;;;;1.13;0.63;;;6.90;99.90;;;;;;5091157;28;20184;-78
2021/05/06 06:36:06;;;;;;;2.08;1.98;;;6.80;99.90;;;;;;5091851;28;20213;-77
2021/05/06 06:38:32;;;;;;;5.65;4.55;;;6.80;99.90;;;;;;5091435;28;20233;-76
2021/05/06 06:41:00;;;;;;;2.25;1.25;;;6.80;99.90;;;;;;5090914;28;20193;-79
2021/05/06 06:43:26;;;;;;;2.78;0.85;;;6.70;99.90;;;;;;5091850;28;20204;-79
2021/05/06 06:45:52;;;;;;;0.65;0.65;;;6.80;99.90;;;;;;5091612;28;20201;-77
2021/05/06 06:48:19;;;;;;;2.70;2.00;;;6.90;99.90;;;;;;5091248;28;20189;-77
2021/05/06 06:50:46;;;;;;;0.50;0.40;;;7.10;99.90;;;;;;5092174;28;20581;-76
2021/05/06 06:53:14;;;;;;;0.50;0.40;;;7.20;99.90;;;;;;5091339;28;20201;-80
2021/05/06 06:55:40;;;;;;;5.03;3.30;;;7.40;99.90;;;;;;5092364;28;20217;-78
2021/05/06 06:58:08;;;;;;;0.50;0.40;;;7.40;99.90;;;;;;5091828;28;20270;-79
2021/05/06 07:00:34;;;;;;;0.80;0.80;;;7.30;99.90;;;;;;5092327;28;20198;-80
2021/05/06 07:03:00;;;;;;;4.15;1.40;;;7.40;99.90;;;;;;5091089;28;20201;-78
2021/05/06 07:05:26;;;;;;;0.95;0.85;;;8.00;99.90;;;;;;5091884;28;20216;-78
2021/05/06 07:08:10;;;;;;;1.73;0.98;;;8.80;99.90;;;;;;5092367;28;20664;-79
2021/05/06 07:10:36;;;;;;;0.98;0.73;;;9.10;99.90;;;;;;5092738;28;20542;-78
2021/05/06 07:13:02;;;;;;;1.67;1.58;;;9.10;99.90;;;;;;5090091;28;20194;-78
2021/05/06 07:15:29;;;;;;;0.50;0.40;;;9.10;99.90;;;;;;5086315;28;20215;-78
2021/05/06 07:17:55;;;;;;;1.10;0.98;;;9.00;99.90;;;;;;5092273;28;20193;-79
2021/05/06 07:20:21;;;;;;;2.35;2.20;;;9.00;99.90;;;;;;5086605;28;20196;-78
2021/05/06 07:22:47;;;;;;;0.80;0.80;;;8.70;99.90;;;;;;5091209;28;20276;-79
2021/05/06 07:25:15;;;;;;;0.50;0.40;;;8.30;99.90;;;;;;5091339;28;20266;-80
2021/05/06 07:27:41;;;;;;;0.63;0.60;;;8.20;99.90;;;;;;5091890;28;20201;-75
2021/05/06 07:30:09;;;;;;;3.72;0.88;;;8.40;99.90;;;;;;5091243;28;20300;-78
2021/05/06 07:32:36;;;;;;;1.67;1.58;;;8.80;99.90;;;;;;5091175;28;20212;-79
2021/05/06 07:35:02;;;;;;;1.48;1.48;;;9.50;99.90;;;;;;5090857;28;20718;-77
2021/05/06 07:37:29;;;;;;;0.63;0.63;;;9.90;99.90;;;;;;5090959;28;20194;-76
2021/05/06 07:39:55;;;;;;;3.45;3.10;;;10.30;99.90;;;;;;5091860;28;20552;-77
2021/05/06 07:42:22;;;;;;;0.90;0.77;;;10.60;99.90;;;;;;5090619;28;20200;-77
2021/05/06 07:44:48;;;;;;;1.35;1.25;;;10.90;99.90;;;;;;5085264;28;20208;-76
2021/05/06 07:47:15;;;;;;;1.35;1.35;;;10.80;99.90;;;;;;5090445;28;20708;-77
2021/05/06 07:49:41;;;;;;;2.45;2.35;;;10.70;99.90;;;;;;5090929;28;20196;-78
2021/05/06 07:52:13;;;;;;;0.50;0.40;;;10.70;99.90;;;;;;5090873;28;20203;-77
2021/05/06 07:54:39;;;;;;;0.98;0.98;;;10.60;99.90;;;;;;5090228;28;20269;-77
2021/05/06 07:57:06;;;;;;;0.95;0.95;;;10.70;99.90;;;;;;5090482;28;20196;-79
2021/05/06 07:59:33;;;;;;;0.50;0.40;;;10.80;99.90;;;;;;5090991;28;20565;-77
2021/05/06 08:02:00;;;;;;;0.60;0.60;;;11.10;99.90;;;;;;5090751;28;20192;-76
2021/05/06 08:04:26;;;;;;;0.50;0.40;;;11.10;99.90;;;;;;5090755;28;20228;-78
2021/05/06 08:06:52;;;;;;;0.50;0.40;;;10.90;99.90;;;;;;5092440;28;20203;-78
2021/05/06 08:09:19;;;;;;;0.50;0.40;;;10.80;99.90;;;;;;5094600;28;20210;-77
2021/05/06 08:11:45;;;;;;;0.98;0.98;;;10.50;99.90;;;;;;5093473;28;20196;-77
2021/05/06 08:14:11;;;;;;;0.50;0.40;;;10.30;99.90;;;;;;5088189;28;20227;-77
2021/05/06 08:16:38;;;;;;;0.60;0.60;;;10.30;99.90;;;;;;5094148;28;20197;-78
2021/05/06 08:19:04;;;;;;;1.63;1.52;;;10.30;99.90;;;;;;5093497;28;20196;-77
2021/05/06 08:21:31;;;;;;;0.90;0.75;;;10.10;99.90;;;;;;5093487;28;20206;-77
2021/05/06 08:23:57;;;;;;;0.50;0.40;;;9.90;99.90;;;;;;5093894;28;20214;-78
2021/05/06 08:26:25;;;;;;;0.80;0.70;;;9.70;99.90;;;;;;5093818;28;20201;-78
2021/05/06 08:28:53;;;;;;;1.83;1.73;;;9.80;99.90;;;;;;5092690;28;20212;-78
2021/05/06 08:31:20;;;;;;;1.55;1.48;;;9.90;99.90;;;;;;5093280;28;20198;-77
2021/05/06 08:33:47;;;;;;;1.27;1.27;;;10.10;99.90;;;;;;5093279;28;20222;-78
2021/05/06 08:36:13;;;;;;;1.10;1.05;;;10.20;99.90;;;;;;5093562;28;20227;-77
2021/05/06 08:38:40;;;;;;;1.50;1.23;;;10.10;99.90;;;;;;5093773;28;20197;-78
2021/05/06 08:41:06;;;;;;;1.48;1.38;;;10.30;99.90;;;;;;5093405;28;20200;-77
2021/05/06 08:43:36;;;;;;;1.67;1.58;;;10.80;99.90;;;;;;5088515;28;20239;-79
2021/05/06 08:46:03;;;;;;;0.52;0.52;;;10.90;99.90;;;;;;5087089;22;20187;-80
2021/05/06 08:48:31;;;;;;;0.50;0.40;;;10.70;99.90;;;;;;5037270;28;20225;-83
2021/05/06 08:50:59;;;;;;;1.45;1.20;;;10.60;99.90;;;;;;5047642;28;20202;-81
2021/05/06 08:53:26;;;;;;;0.60;0.60;;;10.50;99.90;;;;;;5049287;28;20699;-82
2021/05/06 08:55:53;;;;;;;1.15;1.15;;;10.20;99.90;;;;;;5049445;28;20283;-82
2021/05/06 08:58:20;;;;;;;0.50;0.40;;;9.90;99.90;;;;;;5050588;28;20221;-81
2021/05/06 09:00:46;;;;;;;0.50;0.40;;;9.90;99.90;;;;;;5049795;28;20286;-81
2021/05/06 09:03:13;;;;;;;0.68;0.68;;;9.90;99.90;;;;;;5049060;28;20193;-82
2021/05/06 09:06:09;;;;;;;3.63;2.05;;;9.70;99.90;;;;;;5049446;28;20192;-81
2021/05/06 09:08:36;;;;;;;0.50;0.40;;;9.70;99.90;;;;;;5049459;28;20266;-81
2021/05/06 09:11:02;;;;;;;0.50;0.45;;;9.80;99.90;;;;;;5048502;28;20223;-81
2021/05/06 09:13:30;;;;;;;4.63;4.40;;;10.30;99.90;;;;;;5049354;28;20218;-81
2021/05/06 09:15:57;;;;;;;0.50;0.40;;;10.30;99.90;;;;;;5049231;28;20312;-81
2021/05/06 09:18:37;;;;;;;0.50;0.40;;;10.40;99.90;;;;;;5048607;28;20242;-81
2021/05/06 09:21:04;;;;;;;0.50;0.40;;;10.40;99.90;;;;;;5029075;28;20192;-80
2021/05/06 09:23:32;;;;;;;0.50;0.40;;;10.30;99.90;;;;;;5029693;28;20202;-79
2021/05/06 09:26:02;;;;;;;0.50;0.40;;;10.40;99.90;;;;;;5027924;28;20230;-80
2021/05/06 09:28:30;;;;;;;0.50;0.40;;;10.40;99.90;;;;;;5026935;28;20259;-80
2021/05/06 09:30:59;;;;;;;0.50;0.40;;;10.30;99.90;;;;;;5026303;28;20206;-80
2021/05/06 09:33:33;;;;;;;0.70;0.70;;;10.40;99.90;;;;;;5025724;28;20278;-80
2021/05/06 09:36:10;;;;;;;0.70;0.70;;;10.30;99.90;;;;;;5027821;28;20217;-80
2021/05/06 09:38:39;;;;;;;0.98;0.98;;;10.50;99.90;;;;;;5028648;28;20202;-79
2021/05/06 09:41:07;;;;;;;0.50;0.40;;;10.80;99.90;;;;;;5028663;28;20198;-81
2021/05/06 09:43:38;;;;;;;1.67;1.42;;;11.00;99.90;;;;;;5028460;28;20197;-81
2021/05/06 09:46:05;;;;;;;1.33;0.93;;;11.20;99.90;;;;;;5029743;28;20286;-81
2021/05/06 09:48:31;;;;;;;0.50;0.40;;;11.10;99.90;;;;;;5047370;28;20807;-80
2021/05/06 09:51:01;;;;;;;1.00;0.80;;;11.00;99.90;;;;;;5048280;28;20174;-81
2021/05/06 09:53:31;;;;;;;0.50;0.40;;;10.80;99.90;;;;;;5051598;28;20174;-82
2021/05/06 09:56:00;;;;;;;0.50;0.40;;;10.60;99.90;;;;;;5050488;28;20304;-82
2021/05/06 09:58:31;;;;;;;0.50;0.40;;;10.60;99.90;;;;;;5043356;28;20725;-81
2021/05/06 10:00:58;;;;;;;0.70;0.70;;;10.60;99.90;;;;;;5044660;28;20280;-81
2021/05/06 10:03:31;;;;;;;0.50;0.50;;;10.70;99.90;;;;;;5046384;28;20259;-80
2021/05/06 10:05:57;;;;;;;0.50;0.40;;;11.00;99.90;;;;;;5043150;28;20245;-80
2021/05/06 10:08:33;;;;;;;0.50;0.40;;;11.30;99.90;;;;;;5045759;28;20202;-79
2021/05/06 10:11:11;;;;;;;0.50;0.40;;;11.80;99.90;;;;;;5045274;28;20203;-78
2021/05/06 10:13:40;;;;;;;1.15;1.05;;;12.30;99.90;;;;;;5044856;28;20197;-81
2021/05/06 10:16:07;;;;;;;0.50;0.50;;;12.60;99.90;;;;;;5044654;28;20215;-78
2021/05/06 10:18:34;;;;;;;0.85;0.82;;;12.40;99.90;;;;;;5044680;28;20274;-82
2021/05/06 10:21:01;;;;;;;0.75;0.75;;;12.30;99.90;;;;;;5025863;28;20264;-80
2021/05/06 10:23:27;;;;;;;0.50;0.40;;;12.30;99.90;;;;;;5024939;28;20198;-80
2021/05/06 10:25:54;;;;;;;1.30;1.25;;;12.50;99.90;;;;;;5023791;28;20216;-80
2021/05/06 10:28:23;;;;;;;1.15;1.15;;;12.90;99.90;;;;;;5024596;28;21068;-79
2021/05/06 10:30:49;;;;;;;0.60;0.60;;;13.30;99.90;;;;;;5025182;28;20202;-78
2021/05/06 10:33:22;;;;;;;0.50;0.40;;;13.30;99.90;;;;;;5023690;28;20200;-79
2021/05/06 10:35:48;;;;;;;0.50;0.40;;;13.20;99.90;;;;;;5024602;28;20265;-80
2021/05/06 10:38:15;;;;;;;0.50;0.40;;;13.10;99.90;;;;;;5024912;28;20225;-80
2021/05/06 10:40:42;;;;;;;0.50;0.40;;;13.00;99.90;;;;;;5024332;28;20184;-79
2021/05/06 10:43:20;;;;;;;0.50;0.40;;;12.90;99.90;;;;;;5024641;28;20195;-80
2021/05/06 10:46:01;;;;;;;0.50;0.40;;;12.70;99.90;;;;;;5024551;28;20191;-80
2021/05/06 10:49:00;;;;;;;0.50;0.40;;;12.80;99.90;;;;;;5037235;28;20195;-80
2021/05/06 10:51:42;;;;;;;0.50;0.40;;;13.60;99.90;;;;;;5024878;28;20196;-79
2021/05/06 10:54:30;;;;;;;0.60;0.60;;;14.40;99.90;;;;;;5038359;28;20449;-81
2021/05/06 10:56:57;;;;;;;0.50;0.37;;;15.20;99.90;;;;;;5045748;28;20458;-80
2021/05/06 10:59:25;;;;;;;0.50;0.40;;;15.20;99.90;;;;;;5048461;28;20434;-81
2021/05/06 11:01:52;;;;;;;0.50;0.40;;;15.00;99.90;;;;;;5046583;28;20438;-80
2021/05/06 11:04:32;;;;;;;0.60;0.60;;;14.70;99.90;;;;;;5046401;28;20495;-81
2021/05/06 11:07:17;;;;;;;0.50;0.40;;;14.40;99.90;;;;;;5046450;28;20453;-82
2021/05/06 11:09:56;;;;;;;0.50;0.40;;;14.30;99.90;;;;;;5047321;28;20426;-78
2021/05/06 11:12:27;;;;;;;0.60;0.43;;;14.30;99.90;;;;;;5047046;28;20422;-80
2021/05/06 11:15:29;;;;;;;0.50;0.40;;;14.80;99.90;;;;;;5049710;28;20461;-79
2021/05/06 11:17:58;;;;;;;7.00;1.40;;;14.60;98.50;;;;;;5049012;28;20488;-81
2021/05/06 11:20:49;;;;;;;0.50;0.40;;;14.70;97.70;;;;;;5048183;28;20440;-80
2021/05/06 11:23:24;;;;;;;0.63;0.63;;;14.30;98.70;;;;;;5048275;28;20253;-81
2021/05/06 11:25:53;;;;;;;0.50;0.40;;;13.90;97.00;;;;;;5048371;28;20171;-80
2021/05/06 11:28:39;;;;;;;2.00;1.90;;;13.70;98.80;;;;;;5048438;28;20211;-80
2021/05/06 11:31:06;;;;;;;0.50;0.40;;;13.90;98.40;;;;;;5046326;28;20214;-81
2021/05/06 11:33:33;;;;;;;0.70;0.70;;;14.50;98.10;;;;;;5048404;28;20210;-80
2021/05/06 11:36:02;;;;;;;2.00;1.80;;;15.10;97.20;;;;;;5047626;28;20474;-80
2021/05/06 11:38:52;;;;;;;0.50;0.40;;;15.40;92.10;;;;;;5046839;28;20501;-81
2021/05/06 11:41:22;;;;;;;0.60;0.50;;;15.80;92.70;;;;;;5050191;28;20461;-81
2021/05/06 11:43:51;;;;;;;1.57;0.70;;;15.90;92.80;;;;;;5051074;28;20417;-81
2021/05/06 11:46:19;;;;;;;0.50;0.40;;;15.90;91.90;;;;;;5050159;28;20534;-82
2021/05/06 11:48:48;;;;;;;1.37;1.27;;;15.70;92.80;;;;;;5047796;28;20577;-83
2021/05/06 11:51:26;;;;;;;1.13;0.67;;;15.70;90.20;;;;;;5048076;28;20437;-83
2021/05/06 11:54:15;;;;;;;0.50;0.40;;;15.10;89.80;;;;;;5047887;28;20544;-81
2021/05/06 11:56:43;;;;;;;0.77;0.75;;;14.40;86.90;;;;;;5043858;28;20497;-80
2021/05/06 11:59:13;;;;;;;0.50;0.40;;;14.20;89.60;;;;;;5049643;28;20207;-82
2021/05/06 12:01:40;;;;;;;0.50;0.50;;;14.00;92.20;;;;;;5048982;28;20187;-83
2021/05/06 12:04:07;;;;;;;0.50;0.40;;;13.80;91.70;;;;;;5049269;28;20227;-82
2021/05/06 12:06:35;;;;;;;0.70;0.60;;;13.50;93.60;;;;;;5045405;28;20585;-83
2021/05/06 12:09:04;;;;;;;0.50;0.40;;;13.20;95.30;;;;;;5039944;28;20203;-84
2021/05/06 12:11:35;;;;;;;0.93;0.73;;;12.90;94.60;;;;;;5041363;28;20195;-84
2021/05/06 12:14:02;;;;;;;0.50;0.40;;;12.80;95.50;;;;;;5041302;28;20202;-84
2021/05/06 12:16:28;;;;;;;0.60;0.52;;;12.90;94.40;;;;;;5042147;28;20223;-85
2021/05/06 12:19:00;;;;;;;0.50;0.40;;;13.20;94.50;;;;;;5040345;28;20191;-83
2021/05/06 12:21:35;;;;;;;0.50;0.40;;;13.70;94.00;;;;;;5040905;28;20196;-84
2021/05/06 12:24:03;;;;;;;0.50;0.40;;;14.60;90.00;;;;;;5041551;28;20193;-84
2021/05/06 12:26:29;;;;;;;0.50;0.30;;;16.00;85.10;;;;;;5040907;28;20464;-83
2021/05/06 12:28:56;;;;;;;0.50;0.40;;;16.90;77.90;;;;;;5037285;28;20589;-81
2021/05/06 12:31:23;;;;;;;0.50;0.40;;;17.30;76.40;;;;;;5036856;28;20944;-83
2021/05/06 12:33:50;;;;;;;0.50;0.30;;;17.30;72.10;;;;;;5037857;28;20798;-84
2021/05/06 12:36:17;;;;;;;0.50;0.30;;;17.10;72.10;;;;;;5043879;28;20502;-83
2021/05/06 12:38:45;;;;;;;1.00;0.77;;;17.30;69.20;;;;;;5045670;28;20442;-80
2021/05/06 12:41:12;;;;;;;0.60;0.50;;;17.50;67.80;;;;;;5037483;28;20454;-83
2021/05/06 12:43:47;;;;;;;0.60;0.40;;;17.30;66.30;;;;;;5038345;28;20529;-83
2021/05/06 12:46:13;;;;;;;0.50;0.40;;;17.10;68.00;;;;;;5037985;28;20481;-84
2021/05/06 12:48:44;;;;;;;0.50;0.30;;;17.50;69.00;;;;;;5038336;28;20441;-84
2021/05/06 12:51:13;;;;;;;0.50;0.30;;;18.10;67.40;;;;;;5039119;28;20929;-84
2021/05/06 12:53:59;;;;;;;2.80;0.83;;;18.20;65.60;;;;;;5037936;28;20449;-83
2021/05/06 12:56:26;;;;;;;0.50;0.40;;;18.10;65.20;;;;;;5037848;28;20890;-84
2021/05/06 12:58:53;;;;;;;0.50;0.30;;;17.40;60.70;;;;;;5038595;28;20475;-83
2021/05/06 13:01:29;;;;;;;0.50;0.30;;;16.70;64.50;;;;;;5038368;28;20450;-83
2021/05/06 13:03:59;;;;;;;1.37;0.50;;;16.60;65.30;;;;;;5038653;28;20503;-84
2021/05/06 13:06:31;;;;;;;0.50;0.40;;;16.50;63.90;;;;;;5039281;28;20458;-83
2021/05/06 13:08:59;;;;;;;0.50;0.40;;;15.90;63.30;;;;;;5038695;28;20450;-83
2021/05/06 13:11:26;;;;;;;0.50;0.30;;;16.20;66.00;;;;;;5039041;28;20951;-83
2021/05/06 13:13:53;;;;;;;0.50;0.30;;;16.70;69.60;;;;;;5039907;28;20484;-84
2021/05/06 13:16:36;;;;;;;0.50;0.50;;;17.70;75.20;;;;;;5039118;28;20483;-83
2021/05/06 13:19:04;;;;;;;0.80;0.70;;;18.00;58.10;;;;;;5031976;28;20488;-83
2021/05/06 13:21:31;;;;;;;0.60;0.60;;;17.50;58.40;;;;;;5038937;28;20538;-83
2021/05/06 13:23:58;;;;;;;0.63;0.50;;;16.80;57.80;;;;;;5040375;28;20471;-83
2021/05/06 13:26:35;;;;;;;0.50;0.30;;;17.10;58.60;;;;;;5038419;28;20492;-83
2021/05/06 13:29:04;;;;;;;0.50;0.40;;;16.90;59.00;;;;;;5039431;28;20522;-83
2021/05/06 13:31:35;;;;;;;0.50;0.40;;;17.40;59.30;;;;;;5038576;28;20487;-83
2021/05/06 13:34:18;;;;;;;0.50;0.30;;;18.10;56.90;;;;;;5039439;28;20529;-83
2021/05/06 13:36:47;;;;;;;0.50;0.40;;;18.60;56.70;;;;;;5040405;28;20890;-83
2021/05/06 13:39:15;;;;;;;1.00;1.00;;;17.90;56.30;;;;;;5040348;28;20446;-83
2021/05/06 13:41:44;;;;;;;0.50;0.30;;;16.60;56.60;;;;;;5039026;28;20975;-83
2021/05/06 13:44:13;;;;;;;1.37;0.70;;;16.60;59.40;;;;;;5038844;28;20471;-83
2021/05/06 13:46:45;;;;;;;0.87;0.87;;;17.30;58.00;;;;;;5038977;28;20480;-81
2021/05/06 13:49:11;;;;;;;0.50;0.40;;;17.80;57.60;;;;;;5039056;28;20464;-84
2021/05/06 13:51:38;;;;;;;0.50;0.40;;;18.10;56.10;;;;;;5038595;28;20458;-83
2021/05/06 13:54:05;;;;;;;0.50;0.30;;;17.90;56.60;;;;;;5038408;28;20442;-83
2021/05/06 13:56:32;;;;;;;0.50;0.40;;;17.90;56.90;;;;;;5037995;28;20484;-83
2021/05/06 13:58:58;;;;;;;0.50;0.50;;;17.90;57.90;;;;;;5045481;28;20445;-83
2021/05/06 14:01:24;;;;;;;0.50;0.30;;;17.60;57.20;;;;;;5037859;28;20503;-81
2021/05/06 14:03:50;;;;;;;0.50;0.40;;;17.60;58.20;;;;;;5038692;28;20450;-82
2021/05/06 14:06:17;;;;;;;0.50;0.33;;;17.10;56.60;;;;;;5039343;28;20460;-82
2021/05/06 14:08:43;;;;;;;0.50;0.30;;;16.80;57.10;;;;;;5039411;28;20442;-79
2021/05/06 14:11:09;;;;;;;1.00;0.90;;;16.20;56.70;;;;;;5038675;28;20534;-82
2021/05/06 14:13:39;;;;;;;0.50;0.40;;;15.70;57.20;;;;;;5038143;28;20444;-82
2021/05/06 14:16:05;;;;;;;0.50;0.40;;;15.40;61.00;;;;;;5038851;28;20532;-82
2021/05/06 14:18:31;;;;;;;0.50;0.40;;;15.60;59.70;;;;;;5037965;28;20454;-82
2021/05/06 14:21:02;;;;;;;0.70;0.70;;;15.50;59.60;;;;;;5037426;28;20521;-79
2021/05/06 14:23:30;;;;;;;0.50;0.40;;;15.50;60.60;;;;;;5037550;28;20450;-82
2021/05/06 14:25:57;;;;;;;0.60;0.40;;;15.70;58.40;;;;;;5037752;28;20434;-81
2021/05/06 14:28:23;;;;;;;0.50;0.33;;;15.50;59.40;;;;;;5037735;28;20442;-82
2021/05/06 14:30:50;;;;;;;0.50;0.40;;;15.60;59.30;;;;;;5035944;28;20491;-82
2021/05/06 14:33:17;;;;;;;0.50;0.40;;;15.80;60.20;;;;;;5032394;28;20471;-82
2021/05/06 14:35:43;;;;;;;0.50;0.40;;;15.90;59.80;;;;;;5037357;28;20481;-82
2021/05/06 14:38:10;;;;;;;1.80;1.70;;;16.00;61.30;;;;;;5038546;28;21024;-82
2021/05/06 14:40:38;;;;;;;0.50;0.30;;;15.90;59.70;;;;;;5037355;28;20452;-82
2021/05/06 14:43:05;;;;;;;0.50;0.40;;;15.90;61.30;;;;;;5037039;28;20462;-82
2021/05/06 14:45:31;;;;;;;0.50;0.40;;;15.90;62.90;;;;;;5037287;28;20465;-81
2021/05/06 14:47:58;;;;;;;0.50;0.30;;;15.90;62.80;;;;;;5050037;22;22175;-77
2021/05/06 14:50:25;;;;;;;0.50;0.40;;;15.90;66.60;;;;;;5029691;28;20434;-77
2021/05/06 14:52:54;;;;;;;0.83;0.83;;;15.90;64.20;;;;;;5031582;28;20438;-76
2021/05/06 14:55:21;;;;;;;0.50;0.40;;;16.00;65.30;;;;;;5021448;28;20487;-77
2021/05/06 14:57:48;;;;;;;0.50;0.40;;;15.90;61.70;;;;;;5023362;28;20471;-76
2021/05/06 15:00:16;;;;;;;1.47;0.50;;;15.70;64.90;;;;;;5031109;28;20451;-75
2021/05/06 15:02:42;;;;;;;0.50;0.40;;;15.50;62.50;;;;;;5023735;28;20442;-76
2021/05/06 15:05:11;;;;;;;0.50;0.50;;;15.20;61.80;;;;;;5027949;28;20501;-76
2021/05/06 15:07:37;;;;;;;0.50;0.40;;;15.00;63.70;;;;;;5027396;28;20450;-78
2021/05/06 15:10:05;;;;;;;0.60;0.60;;;14.70;62.90;;;;;;5031711;28;20438;-77
2021/05/06 15:12:32;;;;;;;0.50;0.40;;;14.60;64.20;;;;;;5031504;28;20444;-78
2021/05/06 15:14:59;;;;;;;0.50;0.40;;;14.40;65.80;;;;;;5034104;28;20454;-78
2021/05/06 15:17:25;;;;;;;0.93;0.63;;;14.30;67.10;;;;;;5042257;28;20529;-75
2021/05/06 15:19:52;;;;;;;0.87;0.87;;;14.30;65.40;;;;;;5043393;28;20974;-79
2021/05/06 15:22:19;;;;;;;0.80;0.50;;;14.10;65.40;;;;;;5028631;28;20628;-78
2021/05/06 15:24:46;;;;;;;1.10;0.90;;;13.70;65.50;;;;;;5033983;28;20199;-79
2021/05/06 15:27:12;;;;;;;0.50;0.40;;;13.40;65.30;;;;;;5035720;28;20438;-78
2021/05/06 15:29:39;;;;;;;0.82;0.82;;;13.20;69.20;;;;;;5035243;28;20215;-78
2021/05/06 15:32:06;;;;;;;0.50;0.40;;;13.00;69.80;;;;;;5035098;28;20254;-78
2021/05/06 15:34:32;;;;;;;0.60;0.55;;;13.00;69.30;;;;;;5028347;28;20200;-78
2021/05/06 15:36:58;;;;;;;0.60;0.50;;;12.80;70.60;;;;;;5035632;28;20211;-78